Jersey City, NJ (07399)

10:16 AM EDT on September 19, 2014 (GMT -0400)
Near Red Bull Arena | Change Station
CLOSE
Current Station
Personal Weather Station
Location: Harrison, NJ
Elevation: 23 ft
Nearby Weather Stations

Elev 23 ft 40.74 °N, 74.15 °W | Updated 12 minutes ago

Partly Cloudy
Partly Cloudy
59.4 °F
Feels Like 59.4 °F
N
4.0
Wind Variable Wind from SE
Gusts 6.0 mph

Today
High -- | Low -- °F
--% Chance of Precip.
Yesterday
High -- | Low -- °F
Precip. -- in
6:40 AM 6:58 PM
Waning Crescent, 19% visible
Pressure 30.33 in
Visibility 10.0 miles
Clouds Few 3500 ft
Scattered Clouds 8000 ft
Mostly Cloudy 25000 ft
Dew Point 43 °F
Humidity 54%
Rainfall 0.00 in
Snow Depth Not available.
UV 2 out of 12
Pollen 3.10 out of 12
Ozone Good
PM2.5 Good
Flu Activity Not available.
METAR KEWR 191351Z 03010KT 10SM FEW035 SCT080 BKN250 15/04 A3033 RMK AO2 SLP271 T01500039

More Conditions Fewer Conditions

Pressure 30.33 in
Visibility 10.0 miles
Clouds Few 3500 ft
Scattered Clouds 8000 ft
Mostly Cloudy 25000 ft
Dew Point 43 °F
Humidity 54%
Rainfall 0.00 in
Snow Depth Not available.
UV 2 out of 12
Pollen 3.10 out of 12
Ozone Good
PM2.5 Good
Flu Activity Not available.
METAR KEWR 191351Z 03010KT 10SM FEW035 SCT080 BKN250 15/04 A3033 RMK AO2 SLP271 T01500039

More Conditions Fewer Conditions

10-Day Weather Forecast

Almanac

Astronomy

Sep. 19, 2014 Rise Set
Actual Time 6:40 AM EDT 6:58 PM EDT
Civil Twilight 6:13 AM EDT 7:25 PM EDT
Nautical Twilight 5:41 AM EDT 7:58 PM EDT
Astronomical Twilight 5:08 AM EDT 8:30 PM EDT
Moon 2:22 AM EDT 4:26 PM EDT
Length of Visible Light 13h 12m
Length of Day
12h 17m
Tomorrow will be 2m 41s shorter.
Waning Crescent, 19% of the Moon is Illuminated
Today
Waning Crescent
Sep 24
New
Oct 1
First Quarter
Oct 8
Full
Oct 15
Last Quarter

Today's Extremes

State Highs State Lows

Community

WunderPhotos

Upload Photos

1,754,614 photos uploaded!

WunderBlogs® & News

Nearby

Air Quality

  Air Quality AQ Index Pollutant
Yesterday Good
OZONE
Yesterday Good
PM2.5
Current Good
PM2.5
Current Good
OZONE
Friday Good
PM2.5
Friday Good
OZONE

Snow Depth

Station Depth Elevation
No new snow has been reported.

Earthquake Activity

City Distance Mag. Time & Date
No recent earthquake activity has been reported nearby.
Minimum magnitude displayed is 2.5.

Coastal Water Temperatures

Place Temperature
Sandy Hook, NJ 68.0 °F
The Battery, NY 71.1 °F
Bergen Point West Reach, NJ 70.0 °F
Kings Point, NY 68.0 °F

Nearby Weather Stations